createdAt,value
2017-08-30T00:00:45.048Z,1006.7
2017-08-30T00:02:06.536Z,1006.8
2017-08-30T00:03:07.936Z,1006.7
2017-08-30T00:04:29.465Z,1006.7
2017-08-30T00:05:30.865Z,1006.7
2017-08-30T00:06:52.354Z,1006.6
2017-08-30T00:07:53.752Z,1006.6
2017-08-30T00:09:15.240Z,1006.6
2017-08-30T00:10:16.640Z,1006.6
2017-08-30T00:11:38.136Z,1006.6
2017-08-30T00:12:39.536Z,1006.7
2017-08-30T00:14:01.024Z,1006.6
2017-08-30T00:15:02.425Z,1006.6
2017-08-30T00:16:23.913Z,1006.6
2017-08-30T00:17:25.313Z,1006.6
2017-08-30T00:18:46.834Z,1006.6
2017-08-30T00:19:48.232Z,1006.5
2017-08-30T00:21:09.723Z,1006.5
2017-08-30T00:22:11.112Z,1006.5
2017-08-30T00:23:32.601Z,1006.5
2017-08-30T00:24:34.001Z,1006.5
2017-08-30T00:25:55.497Z,1006.5
2017-08-30T00:26:56.897Z,1006.4
2017-08-30T00:28:18.385Z,1006.4
2017-08-30T00:29:19.785Z,1006.3
2017-08-30T00:30:41.273Z,1006.4
2017-08-30T00:31:42.673Z,1006.4
2017-08-30T00:33:04.169Z,1006.4
2017-08-30T00:34:05.572Z,1006.4
2017-08-30T00:35:27.057Z,1006.4
2017-08-30T00:36:28.457Z,1006.4
2017-08-30T00:37:49.945Z,1006.4
2017-08-30T00:38:51.345Z,1006.4
2017-08-30T00:40:12.842Z,1006.4
2017-08-30T00:41:14.241Z,1006.4
2017-08-30T00:42:35.721Z,1006.4
2017-08-30T00:43:37.121Z,1006.3
2017-08-30T00:44:58.609Z,1006.3
2017-08-30T00:46:00.010Z,1006.3
2017-08-30T00:47:21.529Z,1006.3
2017-08-30T00:48:22.929Z,1006.3
2017-08-30T00:49:44.417Z,1006.2
2017-08-30T00:50:45.820Z,1006.3
2017-08-30T00:52:07.305Z,1006.2
2017-08-30T00:53:08.706Z,1006.2
2017-08-30T00:54:30.209Z,1006.2
2017-08-30T00:55:31.609Z,1006.2
2017-08-30T00:56:53.098Z,1006.1
2017-08-30T00:57:54.498Z,1006.1
2017-08-30T00:59:15.985Z,1006.1
2017-08-30T01:00:17.385Z,1006.1
2017-08-30T01:01:38.890Z,1006.1
2017-08-30T01:02:40.289Z,1006.1
2017-08-30T01:04:01.777Z,1006.1
2017-08-30T01:05:03.177Z,1006.1
2017-08-30T01:06:24.669Z,1006.1
2017-08-30T01:07:26.066Z,1006.1
2017-08-30T01:08:47.586Z,1006.1
2017-08-30T01:09:48.985Z,1006.1
2017-08-30T01:11:10.474Z,1006.1
2017-08-30T01:12:11.874Z,1006.0
2017-08-30T01:13:33.362Z,1006.1
2017-08-30T01:14:34.762Z,1006.1
2017-08-30T01:15:56.268Z,1006.1
2017-08-30T01:16:57.666Z,1006.1
2017-08-30T01:18:19.154Z,1006.0
2017-08-30T01:19:20.554Z,1006.1
2017-08-30T01:20:42.042Z,1006.0
2017-08-30T01:21:43.442Z,1006.0
2017-08-30T01:23:04.970Z,1006.0
2017-08-30T01:24:06.370Z,1006.0
2017-08-30T01:25:27.858Z,1006.0
2017-08-30T01:26:29.259Z,1006.0
2017-08-30T01:27:50.746Z,1006.0
2017-08-30T01:28:52.146Z,1006.0
2017-08-30T01:30:13.666Z,1005.9
2017-08-30T01:31:15.070Z,1005.9
2017-08-30T01:32:36.554Z,1005.9
2017-08-30T01:33:37.946Z,1005.9
2017-08-30T01:34:59.434Z,1005.9
2017-08-30T01:36:00.834Z,1005.9
2017-08-30T01:37:22.330Z,1005.9
2017-08-30T01:38:23.730Z,1005.9
2017-08-30T01:39:45.218Z,1005.8
2017-08-30T01:40:46.619Z,1005.8
2017-08-30T01:42:08.098Z,1005.8
2017-08-30T01:43:09.500Z,1005.9
2017-08-30T01:44:31.003Z,1005.8
2017-08-30T01:45:32.402Z,1005.8
2017-08-30T01:46:53.890Z,1005.8
2017-08-30T01:47:55.292Z,1005.8
2017-08-30T01:49:16.779Z,1005.8
2017-08-30T01:50:18.179Z,1005.7
2017-08-30T01:51:39.698Z,1005.8
2017-08-30T01:52:41.098Z,1005.8
2017-08-30T01:54:02.586Z,1005.7
2017-08-30T01:55:03.986Z,1005.8
2017-08-30T01:56:25.475Z,1005.7
2017-08-30T01:57:26.874Z,1005.7
2017-08-30T01:58:48.371Z,1005.7
2017-08-30T01:59:49.773Z,1005.7
2017-08-30T02:01:11.259Z,1005.7
2017-08-30T02:02:12.658Z,1005.7
2017-08-30T02:03:34.146Z,1005.6
2017-08-30T02:04:35.546Z,1005.7
2017-08-30T02:05:57.075Z,1005.6
2017-08-30T02:06:58.475Z,1005.6
2017-08-30T02:08:19.966Z,1005.6
2017-08-30T02:09:21.363Z,1005.6
2017-08-30T02:10:42.851Z,1005.6
2017-08-30T02:11:44.251Z,1005.5
2017-08-30T02:13:05.747Z,1005.6
2017-08-30T02:14:07.147Z,1005.5
2017-08-30T02:15:28.635Z,1005.5
2017-08-30T02:16:30.031Z,1005.5
2017-08-30T02:17:51.515Z,1005.5
2017-08-30T02:18:52.915Z,1005.5
2017-08-30T02:20:14.435Z,1005.5
2017-08-30T02:21:15.835Z,1005.5
2017-08-30T02:22:37.323Z,1005.5
2017-08-30T02:23:38.723Z,1005.5
2017-08-30T02:25:00.211Z,1005.5
2017-08-30T02:26:01.611Z,1005.5
2017-08-30T02:27:23.107Z,1005.5
2017-08-30T02:28:24.502Z,1005.5
2017-08-30T02:29:45.987Z,1005.5
2017-08-30T02:30:47.388Z,1005.5
2017-08-30T02:32:08.876Z,1005.5
2017-08-30T02:33:10.276Z,1005.4
2017-08-30T02:34:31.779Z,1005.4
2017-08-30T02:35:33.171Z,1005.4
2017-08-30T02:36:54.651Z,1005.4
2017-08-30T02:37:56.052Z,1005.4
2017-08-30T02:39:17.544Z,1005.4
2017-08-30T02:40:18.939Z,1005.3
2017-08-30T02:41:40.468Z,1005.3
2017-08-30T02:42:41.867Z,1005.3
2017-08-30T02:44:03.356Z,1005.3
2017-08-30T02:45:04.755Z,1005.3
2017-08-30T02:46:26.244Z,1005.3
2017-08-30T02:47:27.644Z,1005.3
2017-08-30T02:48:49.141Z,1005.3
2017-08-30T02:49:50.540Z,1005.3
2017-08-30T02:51:12.023Z,1005.3
2017-08-30T02:52:13.419Z,1005.3
2017-08-30T02:53:34.908Z,1005.2
2017-08-30T02:54:36.308Z,1005.3
2017-08-30T02:55:57.805Z,1005.2
2017-08-30T02:56:59.204Z,1005.2
2017-08-30T02:58:20.698Z,1005.2
2017-08-30T02:59:22.092Z,1005.2
2017-08-30T03:00:43.580Z,1005.2
2017-08-30T03:01:44.980Z,1005.2
2017-08-30T03:03:06.500Z,1005.2
2017-08-30T03:04:07.900Z,1005.2
2017-08-30T03:05:29.392Z,1005.1
2017-08-30T03:06:30.788Z,1005.2
2017-08-30T03:07:52.276Z,1005.2
2017-08-30T03:08:53.676Z,1005.2
2017-08-30T03:10:15.196Z,1005.1
2017-08-30T03:11:16.596Z,1005.1
2017-08-30T03:12:38.084Z,1005.1
2017-08-30T03:13:39.484Z,1005.1
2017-08-30T03:15:00.972Z,1005.1
2017-08-30T03:16:02.372Z,1005.0
2017-08-30T03:17:23.868Z,1005.1
2017-08-30T03:18:25.268Z,1005.0
2017-08-30T03:19:46.756Z,1005.0
2017-08-30T03:20:48.157Z,1005.0
2017-08-30T03:22:09.645Z,1005.0
2017-08-30T03:23:11.044Z,1005.0
2017-08-30T03:24:32.548Z,1005.0
2017-08-30T03:25:33.940Z,1005.0
2017-08-30T03:26:55.428Z,1005.0
2017-08-30T03:27:56.828Z,1005.0
2017-08-30T03:29:18.316Z,1005.0
2017-08-30T03:30:19.716Z,1005.0
2017-08-30T03:31:41.236Z,1005.0
2017-08-30T03:32:42.636Z,1005.0
2017-08-30T03:34:04.125Z,1005.0
2017-08-30T03:35:05.524Z,1005.0
2017-08-30T03:36:27.022Z,1005.0
2017-08-30T03:37:28.413Z,1005.0
2017-08-30T03:38:49.909Z,1005.0
2017-08-30T03:39:51.309Z,1005.0
2017-08-30T03:41:12.788Z,1005.0
2017-08-30T03:42:14.189Z,1005.0
2017-08-30T03:43:35.676Z,1005.0
2017-08-30T03:44:37.076Z,1004.9
2017-08-30T03:45:58.573Z,1004.9
2017-08-30T03:46:59.972Z,1004.9
2017-08-30T03:48:21.460Z,1004.9
2017-08-30T03:49:22.860Z,1004.9
2017-08-30T03:50:44.349Z,1004.9
2017-08-30T03:51:45.748Z,1004.9
2017-08-30T03:53:07.268Z,1004.9
2017-08-30T03:54:08.669Z,1005.0
2017-08-30T03:55:30.156Z,1005.0
2017-08-30T03:56:31.556Z,1004.9
2017-08-30T03:57:53.045Z,1004.9
2017-08-30T03:58:54.445Z,1004.9
2017-08-30T04:00:15.941Z,1004.9
2017-08-30T04:01:17.341Z,1004.9
2017-08-30T04:02:38.829Z,1004.9
2017-08-30T04:03:40.229Z,1004.9
2017-08-30T04:05:01.725Z,1004.9
2017-08-30T04:06:03.124Z,1004.9
2017-08-30T04:07:24.647Z,1004.9
2017-08-30T04:08:26.046Z,1004.9
2017-08-30T04:09:47.538Z,1004.8
2017-08-30T04:10:48.932Z,1004.8
2017-08-30T04:12:10.422Z,1004.8
2017-08-30T04:13:11.821Z,1004.8
2017-08-30T04:14:33.317Z,1004.7
2017-08-30T04:15:34.717Z,1004.7
2017-08-30T04:16:56.205Z,1004.6
2017-08-30T04:17:57.605Z,1004.6
2017-08-30T04:19:19.093Z,1004.6
2017-08-30T04:20:20.494Z,1004.6
2017-08-30T04:21:42.013Z,1004.6
2017-08-30T04:22:43.413Z,1004.6
2017-08-30T04:24:04.902Z,1004.6
2017-08-30T04:25:06.302Z,1004.6
2017-08-30T04:26:27.789Z,1004.6
2017-08-30T04:27:29.189Z,1004.6
2017-08-30T04:28:50.694Z,1004.6
2017-08-30T04:29:52.094Z,1004.5
2017-08-30T04:31:13.583Z,1004.5
2017-08-30T04:32:14.982Z,1004.5
2017-08-30T04:33:36.475Z,1004.5
2017-08-30T04:34:37.869Z,1004.5
2017-08-30T04:35:59.390Z,1004.5
2017-08-30T04:37:00.791Z,1004.5
2017-08-30T04:38:22.278Z,1004.5
2017-08-30T04:39:23.678Z,1004.4
2017-08-30T04:40:45.166Z,1004.4
2017-08-30T04:41:46.565Z,1004.4
2017-08-30T04:43:08.069Z,1004.4
2017-08-30T04:44:09.470Z,1004.4
2017-08-30T04:45:30.958Z,1004.3
2017-08-30T04:46:32.358Z,1004.3
2017-08-30T04:47:53.846Z,1004.3
2017-08-30T04:48:55.246Z,1004.3
2017-08-30T04:50:16.742Z,1004.2
2017-08-30T04:51:18.143Z,1004.2
2017-08-30T04:52:39.637Z,1004.2
2017-08-30T04:53:41.030Z,1004.1
2017-08-30T04:55:02.518Z,1004.1
2017-08-30T04:56:03.918Z,1004.2
2017-08-30T04:57:25.438Z,1004.2
2017-08-30T04:58:26.838Z,1004.2
2017-08-30T04:59:48.326Z,1004.2
2017-08-30T05:00:49.726Z,1004.2
2017-08-30T05:02:11.214Z,1004.2
2017-08-30T05:03:12.614Z,1004.2
2017-08-30T05:04:34.137Z,1004.2
2017-08-30T05:05:35.553Z,1004.2
2017-08-30T05:06:57.022Z,1004.2
2017-08-30T05:07:58.422Z,1004.2
2017-08-30T05:09:19.911Z,1004.3
2017-08-30T05:10:21.310Z,1004.3
2017-08-30T05:11:42.807Z,1004.2
2017-08-30T05:12:44.212Z,1004.2
2017-08-30T05:14:05.694Z,1004.2
2017-08-30T05:15:07.094Z,1004.2
2017-08-30T05:16:28.582Z,1004.2
2017-08-30T05:17:29.982Z,1004.2
2017-08-30T05:18:51.488Z,1004.2
2017-08-30T05:19:52.879Z,1004.2
2017-08-30T05:21:14.368Z,1004.2
2017-08-30T05:22:15.767Z,1004.2
2017-08-30T05:23:37.254Z,1004.2
2017-08-30T05:24:38.657Z,1004.1
2017-08-30T05:26:00.151Z,1004.1
2017-08-30T05:27:01.551Z,1004.2
2017-08-30T05:28:23.039Z,1004.1
2017-08-30T05:29:24.439Z,1004.1
2017-08-30T05:30:45.927Z,1004.1
2017-08-30T05:31:47.327Z,1004.1
2017-08-30T05:33:08.855Z,1004.1
2017-08-30T05:34:10.255Z,1004.1
2017-08-30T05:35:31.743Z,1004.0
2017-08-30T05:36:33.143Z,1004.1
2017-08-30T05:37:54.631Z,1004.0
2017-08-30T05:38:56.031Z,1004.0
2017-08-30T05:40:17.527Z,1004.1
2017-08-30T05:41:18.927Z,1004.0
2017-08-30T05:42:40.415Z,1004.0
2017-08-30T05:43:41.815Z,1004.0
2017-08-30T05:45:03.295Z,1004.0
2017-08-30T05:46:04.695Z,1004.0
2017-08-30T05:47:26.223Z,1003.9
2017-08-30T05:48:27.622Z,1003.9
2017-08-30T05:49:49.111Z,1003.9
2017-08-30T05:50:50.511Z,1003.8
2017-08-30T05:52:11.998Z,1003.8
2017-08-30T05:53:13.399Z,1003.7
2017-08-30T05:54:34.903Z,1003.7
2017-08-30T05:55:36.303Z,1003.7
2017-08-30T05:56:57.800Z,1003.6
2017-08-30T05:57:59.199Z,1003.6
2017-08-30T05:59:20.687Z,1003.6
2017-08-30T06:00:22.087Z,1003.6
2017-08-30T06:01:43.616Z,1003.6
2017-08-30T06:02:45.016Z,1003.6
2017-08-30T06:04:06.503Z,1003.6
2017-08-30T06:05:07.903Z,1003.5
2017-08-30T06:06:29.392Z,1003.6
2017-08-30T06:07:30.791Z,1003.6
2017-08-30T06:08:52.296Z,1003.6
2017-08-30T06:09:53.695Z,1003.6
2017-08-30T06:11:15.184Z,1003.5
2017-08-30T06:12:16.583Z,1003.5
2017-08-30T06:13:38.077Z,1003.5
2017-08-30T06:14:39.472Z,1003.5
2017-08-30T06:16:01.000Z,1003.5
2017-08-30T06:17:02.400Z,1003.5
2017-08-30T06:18:23.888Z,1003.5
2017-08-30T06:19:25.288Z,1003.5
2017-08-30T06:20:46.776Z,1003.4
2017-08-30T06:21:48.176Z,1003.5
2017-08-30T06:23:09.704Z,1003.5
2017-08-30T06:24:11.104Z,1003.5
2017-08-30T06:25:32.592Z,1003.5
2017-08-30T06:26:33.991Z,1003.5
2017-08-30T06:27:55.560Z,1003.5
2017-08-30T06:28:56.959Z,1003.5
2017-08-30T06:30:18.464Z,1003.5
2017-08-30T06:31:19.864Z,1003.5
2017-08-30T06:32:41.353Z,1003.5
2017-08-30T06:33:42.752Z,1003.4
2017-08-30T06:35:04.240Z,1003.4
2017-08-30T06:36:05.643Z,1003.4
2017-08-30T06:37:27.168Z,1003.4
2017-08-30T06:38:28.560Z,1003.3
2017-08-30T06:39:50.053Z,1003.3
2017-08-30T06:40:51.449Z,1003.3
2017-08-30T06:42:12.945Z,1003.3
2017-08-30T06:43:14.344Z,1003.4
2017-08-30T06:44:35.872Z,1003.3
2017-08-30T06:45:37.272Z,1003.4
2017-08-30T06:46:58.760Z,1003.4
2017-08-30T06:48:00.161Z,1003.4
2017-08-30T06:49:21.648Z,1003.5
2017-08-30T06:50:23.049Z,1003.5
2017-08-30T06:51:44.577Z,1003.6
2017-08-30T06:52:45.977Z,1003.7
2017-08-30T06:54:07.465Z,1003.8
2017-08-30T06:55:08.864Z,1003.9
2017-08-30T06:56:30.353Z,1003.9
2017-08-30T06:57:31.752Z,1003.9
2017-08-30T06:58:53.256Z,1004.1
2017-08-30T06:59:54.657Z,1004.2
2017-08-30T07:01:16.145Z,1004.3
2017-08-30T07:02:17.546Z,1004.4
2017-08-30T07:03:39.033Z,1004.5
2017-08-30T07:04:40.433Z,1004.5
2017-08-30T07:06:01.961Z,1004.6
2017-08-30T07:07:03.361Z,1004.7
2017-08-30T07:08:24.849Z,1004.8
2017-08-30T07:09:26.249Z,1004.9
2017-08-30T07:10:47.737Z,1005.0
2017-08-30T07:11:49.137Z,1005.0
2017-08-30T07:13:10.665Z,1005.3
2017-08-30T07:14:12.065Z,1005.4
2017-08-30T07:15:33.553Z,1005.5
2017-08-30T07:16:34.953Z,1005.7
2017-08-30T07:17:56.441Z,1005.7
2017-08-30T07:18:57.842Z,1005.7
2017-08-30T07:20:19.362Z,1005.5
2017-08-30T07:21:20.795Z,1005.6
2017-08-30T07:22:42.249Z,1005.7
2017-08-30T07:23:43.649Z,1005.6
2017-08-30T07:25:05.154Z,1005.6
2017-08-30T07:26:06.553Z,1005.5
2017-08-30T07:27:28.066Z,1005.5
2017-08-30T07:28:29.466Z,1005.5
2017-08-30T07:29:50.953Z,1005.5
2017-08-30T07:30:52.355Z,1005.5
2017-08-30T07:32:13.843Z,1005.5
2017-08-30T07:33:15.242Z,1005.5
2017-08-30T07:34:36.754Z,1005.5
2017-08-30T07:35:38.159Z,1005.5
2017-08-30T07:36:59.641Z,1005.5
2017-08-30T07:38:01.034Z,1005.5
2017-08-30T07:39:22.538Z,1005.4
2017-08-30T07:40:23.938Z,1005.4
2017-08-30T07:41:45.466Z,1005.3
